sensor_id;sensor_type;location;lat;lon;timestamp;P1;P2;P0
46044;PMS7003;31781;54.094;13.428;2022-09-09T00:03:53;10.75;10.75;8.75
46044;PMS7003;31781;54.094;13.428;2022-09-09T00:09:01;14.75;14.75;10.75
46044;PMS7003;31781;54.094;13.428;2022-09-09T00:14:13;14.50;14.50;11.00
46044;PMS7003;31781;54.094;13.428;2022-09-09T00:19:30;17.25;15.00;11.75
46044;PMS7003;31781;54.094;13.428;2022-09-09T00:24:41;16.00;16.00;12.50
46044;PMS7003;31781;54.094;13.428;2022-09-09T00:29:47;12.75;11.50;8.00
46044;PMS7003;31781;54.094;13.428;2022-09-09T00:35:10;10.50;9.75;7.75
46044;PMS7003;31781;54.094;13.428;2022-09-09T00:40:23;11.25;10.00;8.00
46044;PMS7003;31781;54.094;13.428;2022-09-09T00:45:59;11.75;11.75;9.00
46044;PMS7003;31781;54.094;13.428;2022-09-09T00:51:21;8.50;7.00;5.50
46044;PMS7003;31781;54.094;13.428;2022-09-09T00:56:30;11.25;10.25;7.75
46044;PMS7003;31781;54.094;13.428;2022-09-09T01:01:40;9.75;9.75;8.00
46044;PMS7003;31781;54.094;13.428;2022-09-09T01:07:00;12.25;11.25;7.75
46044;PMS7003;31781;54.094;13.428;2022-09-09T01:17:42;7.50;7.50;6.50
46044;PMS7003;31781;54.094;13.428;2022-09-09T01:23:04;12.25;10.50;8.00
46044;PMS7003;31781;54.094;13.428;2022-09-09T01:28:27;9.00;8.75;7.00
46044;PMS7003;31781;54.094;13.428;2022-09-09T01:33:47;6.50;6.50;5.50
46044;PMS7003;31781;54.094;13.428;2022-09-09T01:38:51;10.00;9.00;6.25
46044;PMS7003;31781;54.094;13.428;2022-09-09T01:43:54;8.75;8.75;7.00
46044;PMS7003;31781;54.094;13.428;2022-09-09T01:59:40;6.50;6.50;5.25
46044;PMS7003;31781;54.094;13.428;2022-09-09T02:05:01;6.75;6.50;6.00
46044;PMS7003;31781;54.094;13.428;2022-09-09T02:10:19;5.75;5.75;5.00
46044;PMS7003;31781;54.094;13.428;2022-09-09T02:15:42;8.00;6.00;5.00
46044;PMS7003;31781;54.094;13.428;2022-09-09T02:26:13;7.25;6.00;5.00
46044;PMS7003;31781;54.094;13.428;2022-09-09T02:31:21;8.00;6.00;5.00
46044;PMS7003;31781;54.094;13.428;2022-09-09T02:36:29;7.50;4.25;3.75
46044;PMS7003;31781;54.094;13.428;2022-09-09T02:41:41;8.25;6.25;5.50
46044;PMS7003;31781;54.094;13.428;2022-09-09T02:52:25;5.50;5.50;5.00
46044;PMS7003;31781;54.094;13.428;2022-09-09T02:57:40;7.50;7.50;6.50
46044;PMS7003;31781;54.094;13.428;2022-09-09T03:03:00;6.50;6.50;5.50
46044;PMS7003;31781;54.094;13.428;2022-09-09T03:08:04;7.00;7.00;5.00
46044;PMS7003;31781;54.094;13.428;2022-09-09T03:13:07;9.75;9.75;6.75
46044;PMS7003;31781;54.094;13.428;2022-09-09T03:18:16;10.25;8.50;7.25
46044;PMS7003;31781;54.094;13.428;2022-09-09T03:23:18;9.50;9.50;7.50
46044;PMS7003;31781;54.094;13.428;2022-09-09T03:28:22;10.75;9.50;6.75
46044;PMS7003;31781;54.094;13.428;2022-09-09T03:33:31;7.00;7.00;5.00
46044;PMS7003;31781;54.094;13.428;2022-09-09T03:38:34;9.00;6.75;6.00
46044;PMS7003;31781;54.094;13.428;2022-09-09T03:43:37;7.75;7.75;6.75
46044;PMS7003;31781;54.094;13.428;2022-09-09T03:48:56;9.50;9.50;8.00
46044;PMS7003;31781;54.094;13.428;2022-09-09T03:54:00;12.00;10.00;8.00
46044;PMS7003;31781;54.094;13.428;2022-09-09T04:04:37;16.00;13.00;9.75
46044;PMS7003;31781;54.094;13.428;2022-09-09T04:09:56;13.00;13.00;10.00
46044;PMS7003;31781;54.094;13.428;2022-09-09T04:14:59;15.25;15.25;12.50
46044;PMS7003;31781;54.094;13.428;2022-09-09T04:20:02;16.75;16.75;13.00
46044;PMS7003;31781;54.094;13.428;2022-09-09T04:25:11;17.00;17.00;13.50
46044;PMS7003;31781;54.094;13.428;2022-09-09T04:30:14;20.00;20.00;14.75
46044;PMS7003;31781;54.094;13.428;2022-09-09T04:35:16;20.25;20.25;16.75
46044;PMS7003;31781;54.094;13.428;2022-09-09T04:40:38;18.00;16.50;13.00
46044;PMS7003;31781;54.094;13.428;2022-09-09T04:45:41;18.75;17.25;14.25
46044;PMS7003;31781;54.094;13.428;2022-09-09T04:50:53;22.50;21.25;17.00
46044;PMS7003;31781;54.094;13.428;2022-09-09T04:56:06;24.25;24.00;17.50
46044;PMS7003;31781;54.094;13.428;2022-09-09T05:01:13;21.00;21.00;17.00
46044;PMS7003;31781;54.094;13.428;2022-09-09T05:06:18;21.50;21.50;16.50
46044;PMS7003;31781;54.094;13.428;2022-09-09T05:11:40;23.75;23.00;15.75
46044;PMS7003;31781;54.094;13.428;2022-09-09T05:16:44;22.25;21.25;16.00
46044;PMS7003;31781;54.094;13.428;2022-09-09T05:22:07;19.50;19.50;14.50
46044;PMS7003;31781;54.094;13.428;2022-09-09T05:27:10;18.50;18.50;13.00
46044;PMS7003;31781;54.094;13.428;2022-09-09T05:32:12;21.25;21.00;14.75
46044;PMS7003;31781;54.094;13.428;2022-09-09T05:37:32;18.25;17.75;11.00
46044;PMS7003;31781;54.094;13.428;2022-09-09T05:42:35;17.00;17.00;12.00
46044;PMS7003;31781;54.094;13.428;2022-09-09T05:47:59;12.50;11.25;9.25
46044;PMS7003;31781;54.094;13.428;2022-09-09T05:53:01;19.50;17.00;9.50
46044;PMS7003;31781;54.094;13.428;2022-09-09T05:58:05;15.50;15.50;12.00
46044;PMS7003;31781;54.094;13.428;2022-09-09T06:03:14;19.75;19.75;13.75
46044;PMS7003;31781;54.094;13.428;2022-09-09T06:08:17;18.50;16.75;12.50
46044;PMS7003;31781;54.094;13.428;2022-09-09T06:13:39;16.75;15.75;11.25
46044;PMS7003;31781;54.094;13.428;2022-09-09T06:18:43;18.25;17.25;12.75
46044;PMS7003;31781;54.094;13.428;2022-09-09T06:24:03;17.25;15.75;12.25
46044;PMS7003;31781;54.094;13.428;2022-09-09T06:29:26;13.25;13.25;11.00
46044;PMS7003;31781;54.094;13.428;2022-09-09T06:34:29;15.50;14.25;11.00
46044;PMS7003;31781;54.094;13.428;2022-09-09T06:39:32;14.00;14.00;11.25
46044;PMS7003;31781;54.094;13.428;2022-09-09T06:44:46;18.75;17.50;12.50
46044;PMS7003;31781;54.094;13.428;2022-09-09T06:49:49;14.00;14.00;8.50
46044;PMS7003;31781;54.094;13.428;2022-09-09T07:00:31;16.25;15.00;9.75
46044;PMS7003;31781;54.094;13.428;2022-09-09T07:11:01;10.50;10.50;5.50
46044;PMS7003;31781;54.094;13.428;2022-09-09T07:16:12;15.25;15.25;10.00
46044;PMS7003;31781;54.094;13.428;2022-09-09T07:21:18;16.00;14.75;10.25
46044;PMS7003;31781;54.094;13.428;2022-09-09T07:26:28;15.50;14.00;8.75
46044;PMS7003;31781;54.094;13.428;2022-09-09T07:31:33;13.50;12.00;7.50
46044;PMS7003;31781;54.094;13.428;2022-09-09T07:36:57;18.25;12.25;9.25
46044;PMS7003;31781;54.094;13.428;2022-09-09T07:42:00;12.00;12.00;9.00
46044;PMS7003;31781;54.094;13.428;2022-09-09T07:47:03;14.25;13.00;8.75
46044;PMS7003;31781;54.094;13.428;2022-09-09T07:52:12;11.50;11.50;7.50
46044;PMS7003;31781;54.094;13.428;2022-09-09T07:57:19;13.00;12.25;8.50
46044;PMS7003;31781;54.094;13.428;2022-09-09T08:02:22;15.75;12.00;8.25
46044;PMS7003;31781;54.094;13.428;2022-09-09T08:07:43;11.25;11.25;7.50
46044;PMS7003;31781;54.094;13.428;2022-09-09T08:12:46;13.50;13.25;9.25
46044;PMS7003;31781;54.094;13.428;2022-09-09T08:23:24;11.50;11.50;7.50
46044;PMS7003;31781;54.094;13.428;2022-09-09T08:28:27;12.00;12.00;9.25
46044;PMS7003;31781;54.094;13.428;2022-09-09T08:33:30;17.75;17.25;12.25
46044;PMS7003;31781;54.094;13.428;2022-09-09T08:38:52;16.50;16.25;10.75
46044;PMS7003;31781;54.094;13.428;2022-09-09T08:44:00;17.25;16.25;11.00
46044;PMS7003;31781;54.094;13.428;2022-09-09T08:54:33;17.50;13.75;9.25
46044;PMS7003;31781;54.094;13.428;2022-09-09T08:59:53;17.00;16.00;11.50
46044;PMS7003;31781;54.094;13.428;2022-09-09T09:05:04;13.75;12.50;9.50
46044;PMS7003;31781;54.094;13.428;2022-09-09T09:10:20;15.00;15.00;10.00
46044;PMS7003;31781;54.094;13.428;2022-09-09T09:15:52;10.00;10.00;3.50
46044;PMS7003;31781;54.094;13.428;2022-09-09T09:21:15;13.75;13.75;10.25
46044;PMS7003;31781;54.094;13.428;2022-09-09T09:26:23;12.67;11.67;9.33
46044;PMS7003;31781;54.094;13.428;2022-09-09T09:31:32;15.67;14.67;11.67
46044;PMS7003;31781;54.094;13.428;2022-09-09T09:42:02;11.67;11.67;9.00
46044;PMS7003;31781;54.094;13.428;2022-09-09T09:47:12;15.67;15.67;10.00
46044;PMS7003;31781;54.094;13.428;2022-09-09T09:52:21;14.00;12.00;9.67
46044;PMS7003;31781;54.094;13.428;2022-09-09T09:57:31;17.33;15.33;11.33
46044;PMS7003;31781;54.094;13.428;2022-09-09T10:02:37;10.00;10.00;8.00
46044;PMS7003;31781;54.094;13.428;2022-09-09T10:07:41;11.67;11.67;8.33
46044;PMS7003;31781;54.094;13.428;2022-09-09T10:12:53;15.00;14.33;11.00
46044;PMS7003;31781;54.094;13.428;2022-09-09T10:18:09;16.33;15.33;10.00
46044;PMS7003;31781;54.094;13.428;2022-09-09T10:23:41;14.00;14.00;11.00
46044;PMS7003;31781;54.094;13.428;2022-09-09T10:29:01;13.00;12.67;10.00
46044;PMS7003;31781;54.094;13.428;2022-09-09T10:34:17;13.33;13.33;10.33
46044;PMS7003;31781;54.094;13.428;2022-09-09T10:39:47;12.67;11.67;10.00
46044;PMS7003;31781;54.094;13.428;2022-09-09T10:44:56;12.33;11.33;8.67
46044;PMS7003;31781;54.094;13.428;2022-09-09T10:50:19;15.67;14.00;10.00
46044;PMS7003;31781;54.094;13.428;2022-09-09T10:56:02;15.33;15.33;11.00
46044;PMS7003;31781;54.094;13.428;2022-09-09T11:01:12;12.33;12.33;9.67
46044;PMS7003;31781;54.094;13.428;2022-09-09T11:06:22;12.33;12.00;9.67
46044;PMS7003;31781;54.094;13.428;2022-09-09T11:11:39;13.33;12.33;9.00
46044;PMS7003;31781;54.094;13.428;2022-09-09T11:16:50;8.67;8.67;6.67
46044;PMS7003;31781;54.094;13.428;2022-09-09T11:21:56;10.00;9.00;7.33
46044;PMS7003;31781;54.094;13.428;2022-09-09T11:27:09;9.00;8.33;7.00
46044;PMS7003;31781;54.094;13.428;2022-09-09T11:32:21;9.00;8.00;6.67
46044;PMS7003;31781;54.094;13.428;2022-09-09T11:37:49;10.00;10.00;8.00
46044;PMS7003;31781;54.094;13.428;2022-09-09T11:43:14;11.00;9.67;8.33
46044;PMS7003;31781;54.094;13.428;2022-09-09T11:59:03;10.67;9.00;6.67
46044;PMS7003;31781;54.094;13.428;2022-09-09T12:04:27;6.00;6.00;5.00
46044;PMS7003;31781;54.094;13.428;2022-09-09T12:09:52;7.67;7.00;6.67
46044;PMS7003;31781;54.094;13.428;2022-09-09T12:15:15;6.67;6.67;5.67
46044;PMS7003;31781;54.094;13.428;2022-09-09T12:20:22;8.33;8.33;7.00
46044;PMS7003;31781;54.094;13.428;2022-09-09T12:25:35;8.00;8.00;7.00
46044;PMS7003;31781;54.094;13.428;2022-09-09T12:30:53;6.00;6.00;5.00
46044;PMS7003;31781;54.094;13.428;2022-09-09T12:36:03;5.00;5.00;4.33
46044;PMS7003;31781;54.094;13.428;2022-09-09T12:41:26;4.33;4.33;4.33
46044;PMS7003;31781;54.094;13.428;2022-09-09T12:46:32;6.33;6.33;6.00
46044;PMS7003;31781;54.094;13.428;2022-09-09T12:51:39;6.00;6.00;5.00
46044;PMS7003;31781;54.094;13.428;2022-09-09T12:56:51;7.00;6.33;5.33
46044;PMS7003;31781;54.094;13.428;2022-09-09T13:01:57;6.00;6.00;4.67
46044;PMS7003;31781;54.094;13.428;2022-09-09T13:07:07;7.33;6.00;5.00
46044;PMS7003;31781;54.094;13.428;2022-09-09T13:17:29;6.00;6.00;5.00
46044;PMS7003;31781;54.094;13.428;2022-09-09T13:22:33;6.00;6.00;5.00
46044;PMS7003;31781;54.094;13.428;2022-09-09T13:27:39;8.67;5.67;5.00
46044;PMS7003;31781;54.094;13.428;2022-09-09T13:32:58;5.33;5.33;5.00
46044;PMS7003;31781;54.094;13.428;2022-09-09T13:38:08;6.00;6.00;5.00
46044;PMS7003;31781;54.094;13.428;2022-09-09T13:43:13;6.00;6.00;5.00
46044;PMS7003;31781;54.094;13.428;2022-09-09T13:48:28;6.00;6.00;5.00
46044;PMS7003;31781;54.094;13.428;2022-09-09T13:58:50;6.00;6.00;5.00
46044;PMS7003;31781;54.094;13.428;2022-09-09T14:03:53;5.00;5.00;4.00
46044;PMS7003;31781;54.094;13.428;2022-09-09T14:08:56;6.00;6.00;4.67
46044;PMS7003;31781;54.094;13.428;2022-09-09T14:14:07;4.00;4.00;3.00
46044;PMS7003;31781;54.094;13.428;2022-09-09T14:19:10;4.67;4.67;4.00
46044;PMS7003;31781;54.094;13.428;2022-09-09T14:24:13;4.33;4.33;3.00
46044;PMS7003;31781;54.094;13.428;2022-09-09T14:29:21;4.00;4.00;3.33
46044;PMS7003;31781;54.094;13.428;2022-09-09T14:34:24;4.33;3.00;3.00
46044;PMS7003;31781;54.094;13.428;2022-09-09T14:39:27;5.00;4.00;3.00
46044;PMS7003;31781;54.094;13.428;2022-09-09T14:49:49;4.67;4.00;3.33
46044;PMS7003;31781;54.094;13.428;2022-09-09T14:54:53;3.33;3.33;3.00
46044;PMS7003;31781;54.094;13.428;2022-09-09T14:59:55;5.00;5.00;4.00
46044;PMS7003;31781;54.094;13.428;2022-09-09T15:05:04;6.00;6.00;5.00
46044;PMS7003;31781;54.094;13.428;2022-09-09T15:10:08;5.33;5.33;5.00
46044;PMS7003;31781;54.094;13.428;2022-09-09T15:15:10;7.00;6.33;5.33
46044;PMS7003;31781;54.094;13.428;2022-09-09T15:20:19;18.00;16.00;13.00
46044;PMS7003;31781;54.094;13.428;2022-09-09T15:25:22;22.33;20.67;14.67
46044;PMS7003;31781;54.094;13.428;2022-09-09T15:30:25;17.67;17.67;12.67
46044;PMS7003;31781;54.094;13.428;2022-09-09T15:35:34;17.00;15.67;10.67
46044;PMS7003;31781;54.094;13.428;2022-09-09T15:40:37;17.33;16.33;11.00
46044;PMS7003;31781;54.094;13.428;2022-09-09T15:45:40;18.33;17.67;13.00
46044;PMS7003;31781;54.094;13.428;2022-09-09T15:50:49;16.00;16.00;12.00
46044;PMS7003;31781;54.094;13.428;2022-09-09T15:56:25;18.33;18.33;14.67
46044;PMS7003;31781;54.094;13.428;2022-09-09T16:01:30;18.67;18.67;12.33
46044;PMS7003;31781;54.094;13.428;2022-09-09T16:06:39;17.00;15.67;11.00
46044;PMS7003;31781;54.094;13.428;2022-09-09T16:11:42;16.67;15.00;11.00
46044;PMS7003;31781;54.094;13.428;2022-09-09T16:16:44;15.67;15.00;11.00
46044;PMS7003;31781;54.094;13.428;2022-09-09T16:21:53;17.33;17.33;10.33
46044;PMS7003;31781;54.094;13.428;2022-09-09T16:26:56;19.00;17.67;11.33
46044;PMS7003;31781;54.094;13.428;2022-09-09T16:31:59;16.50;15.00;12.00
46044;PMS7003;31781;54.094;13.428;2022-09-09T16:37:11;16.25;14.75;12.25
46044;PMS7003;31781;54.094;13.428;2022-09-09T16:42:14;14.75;14.75;11.00
46044;PMS7003;31781;54.094;13.428;2022-09-09T16:47:16;12.50;12.50;9.50
46044;PMS7003;31781;54.094;13.428;2022-09-09T16:52:25;14.25;14.25;10.75
46044;PMS7003;31781;54.094;13.428;2022-09-09T16:57:28;13.67;13.67;9.33
46044;PMS7003;31781;54.094;13.428;2022-09-09T17:02:31;12.25;12.25;10.00
46044;PMS7003;31781;54.094;13.428;2022-09-09T17:07:39;12.50;12.50;8.00
46044;PMS7003;31781;54.094;13.428;2022-09-09T17:12:43;13.75;12.75;10.75
46044;PMS7003;31781;54.094;13.428;2022-09-09T17:17:48;1.00;1.00;1.00
46044;PMS7003;31781;54.094;13.428;2022-09-09T17:22:58;9.25;9.25;8.25
46044;PMS7003;31781;54.094;13.428;2022-09-09T17:28:01;17.00;12.50;9.50
46044;PMS7003;31781;54.094;13.428;2022-09-09T17:33:05;12.75;12.75;9.00
46044;PMS7003;31781;54.094;13.428;2022-09-09T17:38:13;13.25;13.25;10.75
46044;PMS7003;31781;54.094;13.428;2022-09-09T17:43:17;13.00;12.75;9.25
46044;PMS7003;31781;54.094;13.428;2022-09-09T17:48:20;10.25;10.25;8.75
46044;PMS7003;31781;54.094;13.428;2022-09-09T17:53:28;14.00;13.50;10.50
46044;PMS7003;31781;54.094;13.428;2022-09-09T17:58:31;14.25;12.75;10.75
46044;PMS7003;31781;54.094;13.428;2022-09-09T18:03:34;14.00;14.00;9.75
46044;PMS7003;31781;54.094;13.428;2022-09-09T18:08:46;8.75;8.75;5.00
46044;PMS7003;31781;54.094;13.428;2022-09-09T18:13:50;2.50;2.50;2.25
46044;PMS7003;31781;54.094;13.428;2022-09-09T18:18:56;1.50;0.50;0.25
46044;PMS7003;31781;54.094;13.428;2022-09-09T18:24:05;0.50;0.50;0.50
46044;PMS7003;31781;54.094;13.428;2022-09-09T18:29:26;1.25;1.25;1.25
46044;PMS7003;31781;54.094;13.428;2022-09-09T18:34:46;2.75;2.75;2.50
46044;PMS7003;31781;54.094;13.428;2022-09-09T18:39:55;3.75;2.75;2.25
46044;PMS7003;31781;54.094;13.428;2022-09-09T18:45:14;5.00;3.00;3.00
46044;PMS7003;31781;54.094;13.428;2022-09-09T18:50:18;5.00;5.00;3.00
46044;PMS7003;31781;54.094;13.428;2022-09-09T18:55:22;62.00;49.50;31.75
46044;PMS7003;31781;54.094;13.428;2022-09-09T19:00:31;3.25;3.25;2.50
46044;PMS7003;31781;54.094;13.428;2022-09-09T19:05:35;4.50;4.50;3.50
46044;PMS7003;31781;54.094;13.428;2022-09-09T19:10:37;2.75;2.75;2.00
46044;PMS7003;31781;54.094;13.428;2022-09-09T19:15:45;3.50;3.00;2.00
46044;PMS7003;31781;54.094;13.428;2022-09-09T19:21:14;4.25;4.25;3.50
46044;PMS7003;31781;54.094;13.428;2022-09-09T19:26:19;4.25;4.25;3.25
46044;PMS7003;31781;54.094;13.428;2022-09-09T19:31:23;4.00;4.00;3.75
46044;PMS7003;31781;54.094;13.428;2022-09-09T19:36:31;6.00;6.00;5.00
46044;PMS7003;31781;54.094;13.428;2022-09-09T19:41:34;3.00;3.00;2.25
46044;PMS7003;31781;54.094;13.428;2022-09-09T19:46:41;10.25;9.00;7.25
46044;PMS7003;31781;54.094;13.428;2022-09-09T19:51:51;12.00;10.00;7.00
46044;PMS7003;31781;54.094;13.428;2022-09-09T19:56:54;11.00;9.25;7.25
46044;PMS7003;31781;54.094;13.428;2022-09-09T20:02:14;11.75;11.50;7.00
46044;PMS7003;31781;54.094;13.428;2022-09-09T20:07:17;14.25;12.75;8.75
46044;PMS7003;31781;54.094;13.428;2022-09-09T20:12:36;14.50;11.75;9.75
46044;PMS7003;31781;54.094;13.428;2022-09-09T20:17:38;12.25;12.25;8.75
46044;PMS7003;31781;54.094;13.428;2022-09-09T20:22:41;10.50;9.25;6.75
46044;PMS7003;31781;54.094;13.428;2022-09-09T20:27:51;11.25;11.25;9.00
46044;PMS7003;31781;54.094;13.428;2022-09-09T20:32:55;14.50;13.25;9.00
46044;PMS7003;31781;54.094;13.428;2022-09-09T20:37:57;13.75;13.50;11.00
46044;PMS7003;31781;54.094;13.428;2022-09-09T20:43:14;11.75;11.50;7.75
46044;PMS7003;31781;54.094;13.428;2022-09-09T20:48:16;12.00;12.00;9.00
46044;PMS7003;31781;54.094;13.428;2022-09-09T20:53:19;10.00;10.00;7.75
46044;PMS7003;31781;54.094;13.428;2022-09-09T20:58:29;10.50;10.50;8.25
46044;PMS7003;31781;54.094;13.428;2022-09-09T21:03:34;10.75;10.75;8.75
46044;PMS7003;31781;54.094;13.428;2022-09-09T21:08:38;14.25;14.00;10.25
46044;PMS7003;31781;54.094;13.428;2022-09-09T21:13:47;13.25;13.25;9.50
46044;PMS7003;31781;54.094;13.428;2022-09-09T21:18:50;12.50;10.25;8.00
46044;PMS7003;31781;54.094;13.428;2022-09-09T21:23:53;10.00;9.50;7.00
46044;PMS7003;31781;54.094;13.428;2022-09-09T21:29:03;13.25;11.25;8.00
46044;PMS7003;31781;54.094;13.428;2022-09-09T21:34:05;12.00;11.00;9.00
46044;PMS7003;31781;54.094;13.428;2022-09-09T21:39:09;11.75;11.75;9.00
46044;PMS7003;31781;54.094;13.428;2022-09-09T21:44:16;13.50;13.50;9.25
46044;PMS7003;31781;54.094;13.428;2022-09-09T21:49:20;12.75;12.75;9.00
46044;PMS7003;31781;54.094;13.428;2022-09-09T21:54:23;13.00;12.00;9.50
46044;PMS7003;31781;54.094;13.428;2022-09-09T21:59:31;14.50;13.00;10.25
46044;PMS7003;31781;54.094;13.428;2022-09-09T22:04:34;13.00;13.00;10.00
46044;PMS7003;31781;54.094;13.428;2022-09-09T22:09:37;18.00;13.50;10.00
46044;PMS7003;31781;54.094;13.428;2022-09-09T22:14:46;13.25;13.25;8.25
46044;PMS7003;31781;54.094;13.428;2022-09-09T22:19:49;13.50;11.75;6.75
46044;PMS7003;31781;54.094;13.428;2022-09-09T22:24:52;16.00;14.50;11.75
46044;PMS7003;31781;54.094;13.428;2022-09-09T22:30:01;16.75;16.75;12.50
46044;PMS7003;31781;54.094;13.428;2022-09-09T22:35:05;14.00;14.00;10.00
46044;PMS7003;31781;54.094;13.428;2022-09-09T22:40:08;11.25;11.25;7.50
46044;PMS7003;31781;54.094;13.428;2022-09-09T22:45:17;12.75;12.75;10.25
46044;PMS7003;31781;54.094;13.428;2022-09-09T22:50:20;16.00;14.50;11.00
46044;PMS7003;31781;54.094;13.428;2022-09-09T22:55:23;15.50;15.50;11.75
46044;PMS7003;31781;54.094;13.428;2022-09-09T23:00:37;15.75;14.50;10.00
46044;PMS7003;31781;54.094;13.428;2022-09-09T23:05:41;12.50;12.50;9.50
46044;PMS7003;31781;54.094;13.428;2022-09-09T23:10:44;17.00;17.00;12.25
46044;PMS7003;31781;54.094;13.428;2022-09-09T23:16:06;18.00;18.00;12.25
46044;PMS7003;31781;54.094;13.428;2022-09-09T23:21:12;17.00;17.00;11.75
46044;PMS7003;31781;54.094;13.428;2022-09-09T23:26:16;17.00;17.00;11.00
46044;PMS7003;31781;54.094;13.428;2022-09-09T23:31:25;17.00;17.00;12.25
46044;PMS7003;31781;54.094;13.428;2022-09-09T23:36:30;11.25;10.25;7.75
46044;PMS7003;31781;54.094;13.428;2022-09-09T23:41:33;10.50;10.50;7.50
46044;PMS7003;31781;54.094;13.428;2022-09-09T23:46:42;11.00;11.00;8.50
46044;PMS7003;31781;54.094;13.428;2022-09-09T23:52:00;10.75;10.75;8.00
46044;PMS7003;31781;54.094;13.428;2022-09-09T23:57:04;11.50;10.00;8.00
